sensor_id;sensor_type;location;lat;lon;timestamp;P1;durP1;ratioP1;P2;durP2;ratioP2
17650;SDS011;26663;59.302;18.082;2022-11-30T00:01:55;3.73;;;3.57;;
17650;SDS011;26663;59.302;18.082;2022-11-30T00:05:00;5.13;;;4.13;;
17650;SDS011;26663;59.302;18.082;2022-11-30T00:08:05;4.97;;;3.70;;
17650;SDS011;26663;59.302;18.082;2022-11-30T00:11:12;4.00;;;3.60;;
17650;SDS011;26663;59.302;18.082;2022-11-30T00:14:22;4.83;;;4.00;;
17650;SDS011;26663;59.302;18.082;2022-11-30T00:17:27;3.60;;;3.30;;
17650;SDS011;26663;59.302;18.082;2022-11-30T00:20:50;3.67;;;3.37;;
17650;SDS011;26663;59.302;18.082;2022-11-30T00:23:55;4.30;;;4.00;;
17650;SDS011;26663;59.302;18.082;2022-11-30T00:27:01;3.80;;;3.60;;
17650;SDS011;26663;59.302;18.082;2022-11-30T00:30:10;3.27;;;3.17;;
17650;SDS011;26663;59.302;18.082;2022-11-30T00:33:16;3.67;;;3.40;;
17650;SDS011;26663;59.302;18.082;2022-11-30T00:36:21;3.97;;;3.60;;
17650;SDS011;26663;59.302;18.082;2022-11-30T00:39:26;3.57;;;3.37;;
17650;SDS011;26663;59.302;18.082;2022-11-30T00:42:38;3.63;;;3.43;;
17650;SDS011;26663;59.302;18.082;2022-11-30T00:45:43;4.50;;;4.10;;
17650;SDS011;26663;59.302;18.082;2022-11-30T00:48:48;4.23;;;3.97;;
17650;SDS011;26663;59.302;18.082;2022-11-30T00:51:52;4.27;;;4.00;;
17650;SDS011;26663;59.302;18.082;2022-11-30T00:54:57;4.30;;;3.90;;
17650;SDS011;26663;59.302;18.082;2022-11-30T00:58:09;4.03;;;3.83;;
17650;SDS011;26663;59.302;18.082;2022-11-30T01:01:15;4.00;;;3.83;;
17650;SDS011;26663;59.302;18.082;2022-11-30T01:04:21;4.93;;;3.67;;
17650;SDS011;26663;59.302;18.082;2022-11-30T01:07:25;3.80;;;3.70;;
17650;SDS011;26663;59.302;18.082;2022-11-30T01:10:31;3.47;;;3.27;;
17650;SDS011;26663;59.302;18.082;2022-11-30T01:13:38;4.27;;;3.90;;
17650;SDS011;26663;59.302;18.082;2022-11-30T01:16:43;4.00;;;3.70;;
17650;SDS011;26663;59.302;18.082;2022-11-30T01:19:48;5.40;;;3.70;;
17650;SDS011;26663;59.302;18.082;2022-11-30T01:22:53;3.87;;;3.67;;
17650;SDS011;26663;59.302;18.082;2022-11-30T01:25:58;3.67;;;3.47;;
17650;SDS011;26663;59.302;18.082;2022-11-30T01:29:04;3.63;;;3.43;;
17650;SDS011;26663;59.302;18.082;2022-11-30T01:32:11;3.60;;;3.40;;
17650;SDS011;26663;59.302;18.082;2022-11-30T01:35:16;3.83;;;3.53;;
17650;SDS011;26663;59.302;18.082;2022-11-30T01:38:20;3.30;;;3.20;;
17650;SDS011;26663;59.302;18.082;2022-11-30T01:41:26;3.87;;;3.60;;
17650;SDS011;26663;59.302;18.082;2022-11-30T01:44:48;3.73;;;3.53;;
17650;SDS011;26663;59.302;18.082;2022-11-30T01:47:56;3.40;;;3.30;;
17650;SDS011;26663;59.302;18.082;2022-11-30T01:51:01;3.57;;;3.33;;
17650;SDS011;26663;59.302;18.082;2022-11-30T01:54:07;3.97;;;3.70;;
17650;SDS011;26663;59.302;18.082;2022-11-30T01:57:16;3.70;;;3.40;;
17650;SDS011;26663;59.302;18.082;2022-11-30T02:00:26;3.60;;;3.50;;
17650;SDS011;26663;59.302;18.082;2022-11-30T02:03:31;3.90;;;3.60;;
17650;SDS011;26663;59.302;18.082;2022-11-30T02:06:42;3.80;;;3.60;;
17650;SDS011;26663;59.302;18.082;2022-11-30T02:09:48;3.60;;;3.40;;
17650;SDS011;26663;59.302;18.082;2022-11-30T02:13:05;3.60;;;3.50;;
17650;SDS011;26663;59.302;18.082;2022-11-30T02:16:48;3.37;;;3.27;;
17650;SDS011;26663;59.302;18.082;2022-11-30T02:20:20;3.53;;;3.33;;
17650;SDS011;26663;59.302;18.082;2022-11-30T02:27:40;3.87;;;3.67;;
17650;SDS011;26663;59.302;18.082;2022-11-30T02:31:10;3.80;;;3.37;;
17650;SDS011;26663;59.302;18.082;2022-11-30T02:34:18;3.70;;;3.50;;
17650;SDS011;26663;59.302;18.082;2022-11-30T02:37:24;4.03;;;3.50;;
17650;SDS011;26663;59.302;18.082;2022-11-30T02:40:30;3.97;;;3.77;;
17650;SDS011;26663;59.302;18.082;2022-11-30T02:43:35;3.80;;;3.60;;
17650;SDS011;26663;59.302;18.082;2022-11-30T02:46:46;3.80;;;3.67;;
17650;SDS011;26663;59.302;18.082;2022-11-30T02:50:05;4.27;;;3.90;;
17650;SDS011;26663;59.302;18.082;2022-11-30T02:53:13;4.13;;;3.83;;
17650;SDS011;26663;59.302;18.082;2022-11-30T02:56:18;4.10;;;3.90;;
17650;SDS011;26663;59.302;18.082;2022-11-30T02:59:24;7.43;;;4.20;;
17650;SDS011;26663;59.302;18.082;2022-11-30T03:02:31;5.23;;;4.00;;
17650;SDS011;26663;59.302;18.082;2022-11-30T03:05:35;4.40;;;4.00;;
17650;SDS011;26663;59.302;18.082;2022-11-30T03:08:41;3.80;;;3.70;;
17650;SDS011;26663;59.302;18.082;2022-11-30T03:11:45;4.00;;;3.80;;
17650;SDS011;26663;59.302;18.082;2022-11-30T03:14:50;3.80;;;3.60;;
17650;SDS011;26663;59.302;18.082;2022-11-30T03:17:58;4.03;;;3.70;;
17650;SDS011;26663;59.302;18.082;2022-11-30T03:21:04;3.87;;;3.77;;
17650;SDS011;26663;59.302;18.082;2022-11-30T03:24:10;4.30;;;4.10;;
17650;SDS011;26663;59.302;18.082;2022-11-30T03:27:15;4.60;;;4.20;;
17650;SDS011;26663;59.302;18.082;2022-11-30T03:30:20;4.50;;;4.30;;
17650;SDS011;26663;59.302;18.082;2022-11-30T03:33:26;3.80;;;3.70;;
17650;SDS011;26663;59.302;18.082;2022-11-30T03:36:30;4.53;;;4.13;;
17650;SDS011;26663;59.302;18.082;2022-11-30T03:39:35;4.00;;;3.80;;
17650;SDS011;26663;59.302;18.082;2022-11-30T03:42:40;4.23;;;3.93;;
17650;SDS011;26663;59.302;18.082;2022-11-30T03:45:44;4.43;;;4.03;;
17650;SDS011;26663;59.302;18.082;2022-11-30T03:48:51;3.90;;;3.70;;
17650;SDS011;26663;59.302;18.082;2022-11-30T03:51:55;3.87;;;3.67;;
17650;SDS011;26663;59.302;18.082;2022-11-30T03:55:00;4.37;;;4.07;;
17650;SDS011;26663;59.302;18.082;2022-11-30T03:58:06;3.87;;;3.63;;
17650;SDS011;26663;59.302;18.082;2022-11-30T04:01:12;4.50;;;4.10;;
17650;SDS011;26663;59.302;18.082;2022-11-30T04:04:20;4.73;;;4.43;;
17650;SDS011;26663;59.302;18.082;2022-11-30T04:07:24;4.70;;;4.40;;
17650;SDS011;26663;59.302;18.082;2022-11-30T04:10:29;3.80;;;3.60;;
17650;SDS011;26663;59.302;18.082;2022-11-30T04:13:34;4.33;;;4.17;;
17650;SDS011;26663;59.302;18.082;2022-11-30T04:16:40;4.30;;;4.10;;
17650;SDS011;26663;59.302;18.082;2022-11-30T04:19:46;4.40;;;4.10;;
17650;SDS011;26663;59.302;18.082;2022-11-30T04:22:51;4.10;;;3.90;;
17650;SDS011;26663;59.302;18.082;2022-11-30T04:25:56;4.47;;;4.27;;
17650;SDS011;26663;59.302;18.082;2022-11-30T04:29:01;4.70;;;4.30;;
17650;SDS011;26663;59.302;18.082;2022-11-30T04:32:07;4.13;;;3.93;;
17650;SDS011;26663;59.302;18.082;2022-11-30T04:35:13;4.23;;;3.93;;
17650;SDS011;26663;59.302;18.082;2022-11-30T04:38:18;4.03;;;3.73;;
17650;SDS011;26663;59.302;18.082;2022-11-30T04:41:23;4.40;;;4.13;;
17650;SDS011;26663;59.302;18.082;2022-11-30T04:44:28;4.73;;;4.33;;
17650;SDS011;26663;59.302;18.082;2022-11-30T04:47:32;4.70;;;4.40;;
17650;SDS011;26663;59.302;18.082;2022-11-30T04:50:39;3.80;;;3.60;;
17650;SDS011;26663;59.302;18.082;2022-11-30T04:53:43;4.07;;;3.87;;
17650;SDS011;26663;59.302;18.082;2022-11-30T04:56:48;3.90;;;3.77;;
17650;SDS011;26663;59.302;18.082;2022-11-30T04:59:53;4.40;;;4.07;;
17650;SDS011;26663;59.302;18.082;2022-11-30T05:02:58;4.17;;;3.97;;
17650;SDS011;26663;59.302;18.082;2022-11-30T05:06:04;3.77;;;3.57;;
17650;SDS011;26663;59.302;18.082;2022-11-30T05:09:09;4.40;;;4.07;;
17650;SDS011;26663;59.302;18.082;2022-11-30T05:12:14;4.73;;;4.43;;
17650;SDS011;26663;59.302;18.082;2022-11-30T05:15:19;3.97;;;3.60;;
17650;SDS011;26663;59.302;18.082;2022-11-30T05:18:24;4.37;;;3.97;;
17650;SDS011;26663;59.302;18.082;2022-11-30T05:21:30;4.67;;;4.27;;
17650;SDS011;26663;59.302;18.082;2022-11-30T05:24:35;4.20;;;4.00;;
17650;SDS011;26663;59.302;18.082;2022-11-30T05:27:39;5.03;;;4.67;;
17650;SDS011;26663;59.302;18.082;2022-11-30T05:30:44;4.60;;;4.20;;
17650;SDS011;26663;59.302;18.082;2022-11-30T05:33:49;5.43;;;4.17;;
17650;SDS011;26663;59.302;18.082;2022-11-30T05:36:55;7.27;;;4.50;;
17650;SDS011;26663;59.302;18.082;2022-11-30T05:40:02;7.40;;;4.43;;
17650;SDS011;26663;59.302;18.082;2022-11-30T05:43:09;5.73;;;4.60;;
17650;SDS011;26663;59.302;18.082;2022-11-30T05:46:14;7.80;;;5.27;;
17650;SDS011;26663;59.302;18.082;2022-11-30T05:49:19;7.60;;;4.83;;
17650;SDS011;26663;59.302;18.082;2022-11-30T05:52:25;6.03;;;4.43;;
17650;SDS011;26663;59.302;18.082;2022-11-30T05:55:30;5.10;;;4.57;;
17650;SDS011;26663;59.302;18.082;2022-11-30T05:58:36;5.50;;;4.63;;
17650;SDS011;26663;59.302;18.082;2022-11-30T06:01:41;5.67;;;5.10;;
17650;SDS011;26663;59.302;18.082;2022-11-30T06:04:46;7.20;;;4.43;;
17650;SDS011;26663;59.302;18.082;2022-11-30T06:07:53;5.33;;;4.57;;
17650;SDS011;26663;59.302;18.082;2022-11-30T06:10:59;5.70;;;4.87;;
17650;SDS011;26663;59.302;18.082;2022-11-30T06:14:04;4.90;;;4.50;;
17650;SDS011;26663;59.302;18.082;2022-11-30T06:17:09;5.00;;;4.70;;
17650;SDS011;26663;59.302;18.082;2022-11-30T06:20:14;4.90;;;4.50;;
17650;SDS011;26663;59.302;18.082;2022-11-30T06:23:20;4.93;;;4.53;;
17650;SDS011;26663;59.302;18.082;2022-11-30T06:26:25;4.70;;;4.40;;
17650;SDS011;26663;59.302;18.082;2022-11-30T06:29:30;4.90;;;4.50;;
17650;SDS011;26663;59.302;18.082;2022-11-30T06:32:35;5.07;;;4.57;;
17650;SDS011;26663;59.302;18.082;2022-11-30T06:35:43;4.80;;;4.50;;
17650;SDS011;26663;59.302;18.082;2022-11-30T06:38:50;4.63;;;4.33;;
17650;SDS011;26663;59.302;18.082;2022-11-30T06:41:55;6.93;;;5.07;;
17650;SDS011;26663;59.302;18.082;2022-11-30T06:45:00;5.60;;;4.77;;
17650;SDS011;26663;59.302;18.082;2022-11-30T06:48:04;12.53;;;5.10;;
17650;SDS011;26663;59.302;18.082;2022-11-30T06:51:09;11.43;;;5.57;;
17650;SDS011;26663;59.302;18.082;2022-11-30T06:54:16;12.60;;;6.27;;
17650;SDS011;26663;59.302;18.082;2022-11-30T06:57:20;13.17;;;5.50;;
17650;SDS011;26663;59.302;18.082;2022-11-30T07:00:30;6.43;;;4.97;;
17650;SDS011;26663;59.302;18.082;2022-11-30T07:03:35;7.73;;;5.20;;
17650;SDS011;26663;59.302;18.082;2022-11-30T07:06:40;6.30;;;4.80;;
17650;SDS011;26663;59.302;18.082;2022-11-30T07:09:46;4.77;;;4.37;;
17650;SDS011;26663;59.302;18.082;2022-11-30T07:12:52;4.93;;;4.57;;
17650;SDS011;26663;59.302;18.082;2022-11-30T07:15:57;5.20;;;4.80;;
17650;SDS011;26663;59.302;18.082;2022-11-30T07:19:02;5.07;;;4.77;;
17650;SDS011;26663;59.302;18.082;2022-11-30T07:22:07;7.57;;;5.60;;
17650;SDS011;26663;59.302;18.082;2022-11-30T07:25:13;6.20;;;5.60;;
17650;SDS011;26663;59.302;18.082;2022-11-30T07:28:36;5.80;;;5.30;;
17650;SDS011;26663;59.302;18.082;2022-11-30T07:31:48;5.47;;;5.10;;
17650;SDS011;26663;59.302;18.082;2022-11-30T07:34:53;5.47;;;5.03;;
17650;SDS011;26663;59.302;18.082;2022-11-30T07:37:58;5.33;;;4.83;;
17650;SDS011;26663;59.302;18.082;2022-11-30T07:41:12;5.77;;;4.70;;
17650;SDS011;26663;59.302;18.082;2022-11-30T07:44:17;7.43;;;5.53;;
17650;SDS011;26663;59.302;18.082;2022-11-30T07:47:22;5.13;;;4.63;;
17650;SDS011;26663;59.302;18.082;2022-11-30T07:50:26;6.40;;;5.80;;
17650;SDS011;26663;59.302;18.082;2022-11-30T07:53:32;8.73;;;6.50;;
17650;SDS011;26663;59.302;18.082;2022-11-30T07:56:38;7.87;;;5.63;;
17650;SDS011;26663;59.302;18.082;2022-11-30T07:59:42;5.10;;;4.70;;
17650;SDS011;26663;59.302;18.082;2022-11-30T08:02:48;6.00;;;5.40;;
17650;SDS011;26663;59.302;18.082;2022-11-30T08:05:57;7.00;;;4.93;;
17650;SDS011;26663;59.302;18.082;2022-11-30T08:09:04;6.80;;;5.03;;
17650;SDS011;26663;59.302;18.082;2022-11-30T08:12:11;5.67;;;5.13;;
17650;SDS011;26663;59.302;18.082;2022-11-30T08:15:16;7.70;;;5.60;;
17650;SDS011;26663;59.302;18.082;2022-11-30T08:18:23;7.57;;;5.10;;
17650;SDS011;26663;59.302;18.082;2022-11-30T08:21:28;7.43;;;4.90;;
17650;SDS011;26663;59.302;18.082;2022-11-30T08:24:34;5.40;;;4.70;;
17650;SDS011;26663;59.302;18.082;2022-11-30T08:27:40;5.87;;;4.87;;
17650;SDS011;26663;59.302;18.082;2022-11-30T08:30:44;5.67;;;4.90;;
17650;SDS011;26663;59.302;18.082;2022-11-30T08:33:53;6.33;;;5.20;;
17650;SDS011;26663;59.302;18.082;2022-11-30T08:36:58;6.30;;;5.60;;
17650;SDS011;26663;59.302;18.082;2022-11-30T08:40:04;7.00;;;5.23;;
17650;SDS011;26663;59.302;18.082;2022-11-30T08:43:12;6.00;;;5.40;;
17650;SDS011;26663;59.302;18.082;2022-11-30T08:46:17;6.93;;;5.00;;
17650;SDS011;26663;59.302;18.082;2022-11-30T08:49:44;5.77;;;5.17;;
17650;SDS011;26663;59.302;18.082;2022-11-30T08:52:48;6.23;;;5.63;;
17650;SDS011;26663;59.302;18.082;2022-11-30T08:55:53;5.90;;;5.40;;
17650;SDS011;26663;59.302;18.082;2022-11-30T08:59:01;10.40;;;5.87;;
17650;SDS011;26663;59.302;18.082;2022-11-30T09:02:07;7.80;;;5.80;;
17650;SDS011;26663;59.302;18.082;2022-11-30T09:05:12;5.90;;;5.30;;
17650;SDS011;26663;59.302;18.082;2022-11-30T09:08:17;6.33;;;5.53;;
17650;SDS011;26663;59.302;18.082;2022-11-30T09:11:23;6.13;;;5.63;;
17650;SDS011;26663;59.302;18.082;2022-11-30T09:14:31;9.23;;;5.20;;
17650;SDS011;26663;59.302;18.082;2022-11-30T09:17:36;6.27;;;5.47;;
17650;SDS011;26663;59.302;18.082;2022-11-30T09:20:41;5.50;;;5.20;;
17650;SDS011;26663;59.302;18.082;2022-11-30T09:23:45;8.23;;;5.90;;
17650;SDS011;26663;59.302;18.082;2022-11-30T09:26:53;12.93;;;6.77;;
17650;SDS011;26663;59.302;18.082;2022-11-30T09:30:00;10.60;;;6.87;;
17650;SDS011;26663;59.302;18.082;2022-11-30T09:33:07;8.63;;;6.80;;
17650;SDS011;26663;59.302;18.082;2022-11-30T09:36:12;7.10;;;6.07;;
17650;SDS011;26663;59.302;18.082;2022-11-30T09:39:18;7.90;;;5.80;;
17650;SDS011;26663;59.302;18.082;2022-11-30T09:42:37;12.10;;;5.80;;
17650;SDS011;26663;59.302;18.082;2022-11-30T09:45:52;6.03;;;5.33;;
17650;SDS011;26663;59.302;18.082;2022-11-30T09:49:00;6.03;;;5.53;;
17650;SDS011;26663;59.302;18.082;2022-11-30T09:52:10;9.77;;;5.80;;
17650;SDS011;26663;59.302;18.082;2022-11-30T09:55:21;5.90;;;5.40;;
17650;SDS011;26663;59.302;18.082;2022-11-30T09:58:32;5.60;;;5.07;;
17650;SDS011;26663;59.302;18.082;2022-11-30T10:01:43;9.13;;;5.20;;
17650;SDS011;26663;59.302;18.082;2022-11-30T10:04:58;5.43;;;5.00;;
17650;SDS011;26663;59.302;18.082;2022-11-30T10:08:07;8.57;;;5.70;;
17650;SDS011;26663;59.302;18.082;2022-11-30T10:11:30;6.17;;;5.13;;
17650;SDS011;26663;59.302;18.082;2022-11-30T10:14:50;5.87;;;5.37;;
17650;SDS011;26663;59.302;18.082;2022-11-30T10:18:09;8.80;;;5.83;;
17650;SDS011;26663;59.302;18.082;2022-11-30T10:21:24;5.80;;;5.33;;
17650;SDS011;26663;59.302;18.082;2022-11-30T10:24:46;6.20;;;5.23;;
17650;SDS011;26663;59.302;18.082;2022-11-30T10:28:15;5.80;;;5.40;;
17650;SDS011;26663;59.302;18.082;2022-11-30T10:31:41;13.40;;;6.37;;
17650;SDS011;26663;59.302;18.082;2022-11-30T10:34:50;15.17;;;6.70;;
17650;SDS011;26663;59.302;18.082;2022-11-30T10:37:57;10.63;;;6.23;;
17650;SDS011;26663;59.302;18.082;2022-11-30T10:41:08;6.83;;;6.00;;
17650;SDS011;26663;59.302;18.082;2022-11-30T10:44:16;5.30;;;4.90;;
17650;SDS011;26663;59.302;18.082;2022-11-30T10:47:25;7.57;;;5.70;;
17650;SDS011;26663;59.302;18.082;2022-11-30T10:50:37;6.67;;;5.30;;
17650;SDS011;26663;59.302;18.082;2022-11-30T10:53:43;5.57;;;5.07;;
17650;SDS011;26663;59.302;18.082;2022-11-30T10:56:48;6.33;;;5.67;;
17650;SDS011;26663;59.302;18.082;2022-11-30T10:59:53;6.17;;;5.57;;
17650;SDS011;26663;59.302;18.082;2022-11-30T11:02:58;8.83;;;5.10;;
17650;SDS011;26663;59.302;18.082;2022-11-30T11:06:09;5.10;;;4.70;;
17650;SDS011;26663;59.302;18.082;2022-11-30T11:09:22;5.43;;;5.00;;
17650;SDS011;26663;59.302;18.082;2022-11-30T11:12:37;14.17;;;6.03;;
17650;SDS011;26663;59.302;18.082;2022-11-30T11:15:42;9.67;;;5.73;;
17650;SDS011;26663;59.302;18.082;2022-11-30T11:19:00;6.87;;;5.07;;
17650;SDS011;26663;59.302;18.082;2022-11-30T11:22:13;7.10;;;5.60;;
17650;SDS011;26663;59.302;18.082;2022-11-30T11:25:21;10.57;;;7.00;;
17650;SDS011;26663;59.302;18.082;2022-11-30T11:28:28;8.30;;;6.27;;
17650;SDS011;26663;59.302;18.082;2022-11-30T11:31:34;6.87;;;6.13;;
17650;SDS011;26663;59.302;18.082;2022-11-30T11:34:40;7.97;;;6.60;;
17650;SDS011;26663;59.302;18.082;2022-11-30T11:37:53;9.07;;;7.60;;
17650;SDS011;26663;59.302;18.082;2022-11-30T11:40:59;9.70;;;7.80;;
17650;SDS011;26663;59.302;18.082;2022-11-30T11:44:14;10.87;;;7.60;;
17650;SDS011;26663;59.302;18.082;2022-11-30T11:47:24;8.63;;;6.00;;
17650;SDS011;26663;59.302;18.082;2022-11-30T11:50:33;6.10;;;5.50;;
17650;SDS011;26663;59.302;18.082;2022-11-30T11:54:01;6.90;;;5.20;;
17650;SDS011;26663;59.302;18.082;2022-11-30T11:57:14;5.90;;;5.30;;
17650;SDS011;26663;59.302;18.082;2022-11-30T12:00:21;7.33;;;5.57;;
17650;SDS011;26663;59.302;18.082;2022-11-30T12:03:29;7.40;;;6.67;;
17650;SDS011;26663;59.302;18.082;2022-11-30T12:06:39;6.23;;;5.63;;
17650;SDS011;26663;59.302;18.082;2022-11-30T12:09:52;6.50;;;5.80;;
17650;SDS011;26663;59.302;18.082;2022-11-30T12:13:08;6.47;;;5.43;;
17650;SDS011;26663;59.302;18.082;2022-11-30T12:16:21;5.80;;;5.13;;
17650;SDS011;26663;59.302;18.082;2022-11-30T12:19:39;5.67;;;5.27;;
17650;SDS011;26663;59.302;18.082;2022-11-30T12:22:58;7.43;;;5.37;;
17650;SDS011;26663;59.302;18.082;2022-11-30T12:26:26;6.03;;;5.43;;
17650;SDS011;26663;59.302;18.082;2022-11-30T12:29:39;8.90;;;5.73;;
17650;SDS011;26663;59.302;18.082;2022-11-30T12:36:17;11.50;;;6.00;;
17650;SDS011;26663;59.302;18.082;2022-11-30T12:39:28;18.37;;;7.23;;
17650;SDS011;26663;59.302;18.082;2022-11-30T12:42:40;47.77;;;10.37;;
17650;SDS011;26663;59.302;18.082;2022-11-30T12:45:50;23.33;;;8.03;;
17650;SDS011;26663;59.302;18.082;2022-11-30T12:49:07;29.87;;;9.47;;
17650;SDS011;26663;59.302;18.082;2022-11-30T12:52:29;25.53;;;8.07;;
17650;SDS011;26663;59.302;18.082;2022-11-30T12:55:43;60.23;;;13.50;;
17650;SDS011;26663;59.302;18.082;2022-11-30T12:58:54;40.53;;;10.80;;
17650;SDS011;26663;59.302;18.082;2022-11-30T13:02:12;28.97;;;8.67;;
17650;SDS011;26663;59.302;18.082;2022-11-30T13:05:34;19.20;;;6.93;;
17650;SDS011;26663;59.302;18.082;2022-11-30T13:08:44;12.43;;;6.67;;
17650;SDS011;26663;59.302;18.082;2022-11-30T13:11:56;18.47;;;7.30;;
17650;SDS011;26663;59.302;18.082;2022-11-30T13:15:12;19.17;;;6.80;;
17650;SDS011;26663;59.302;18.082;2022-11-30T13:18:22;19.07;;;6.60;;
17650;SDS011;26663;59.302;18.082;2022-11-30T13:21:28;11.23;;;5.53;;
17650;SDS011;26663;59.302;18.082;2022-11-30T13:24:36;11.67;;;5.80;;
17650;SDS011;26663;59.302;18.082;2022-11-30T13:27:43;8.67;;;5.50;;
17650;SDS011;26663;59.302;18.082;2022-11-30T13:31:02;9.33;;;5.90;;
17650;SDS011;26663;59.302;18.082;2022-11-30T13:37:31;10.87;;;5.50;;
17650;SDS011;26663;59.302;18.082;2022-11-30T13:40:36;7.47;;;5.90;;
17650;SDS011;26663;59.302;18.082;2022-11-30T13:43:42;6.33;;;5.00;;
17650;SDS011;26663;59.302;18.082;2022-11-30T13:46:51;9.30;;;5.27;;
17650;SDS011;26663;59.302;18.082;2022-11-30T13:49:57;10.97;;;5.30;;
17650;SDS011;26663;59.302;18.082;2022-11-30T13:53:20;9.67;;;5.60;;
17650;SDS011;26663;59.302;18.082;2022-11-30T13:56:31;8.47;;;5.83;;
17650;SDS011;26663;59.302;18.082;2022-11-30T13:59:43;6.60;;;5.67;;
17650;SDS011;26663;59.302;18.082;2022-11-30T14:02:51;8.33;;;5.37;;
17650;SDS011;26663;59.302;18.082;2022-11-30T14:09:54;5.73;;;5.30;;
17650;SDS011;26663;59.302;18.082;2022-11-30T14:13:02;8.27;;;5.37;;
17650;SDS011;26663;59.302;18.082;2022-11-30T14:16:18;8.33;;;5.50;;
17650;SDS011;26663;59.302;18.082;2022-11-30T14:19:26;5.50;;;5.00;;
17650;SDS011;26663;59.302;18.082;2022-11-30T14:22:32;8.40;;;5.20;;
17650;SDS011;26663;59.302;18.082;2022-11-30T14:25:36;9.77;;;4.97;;
17650;SDS011;26663;59.302;18.082;2022-11-30T14:28:46;5.93;;;5.27;;
17650;SDS011;26663;59.302;18.082;2022-11-30T14:31:57;6.70;;;4.97;;
17650;SDS011;26663;59.302;18.082;2022-11-30T14:35:10;5.60;;;5.00;;
17650;SDS011;26663;59.302;18.082;2022-11-30T14:38:18;5.83;;;5.13;;
17650;SDS011;26663;59.302;18.082;2022-11-30T14:41:29;5.67;;;4.70;;
17650;SDS011;26663;59.302;18.082;2022-11-30T14:44:35;7.53;;;5.60;;
17650;SDS011;26663;59.302;18.082;2022-11-30T14:47:43;8.97;;;5.83;;
17650;SDS011;26663;59.302;18.082;2022-11-30T14:50:51;5.57;;;5.07;;
17650;SDS011;26663;59.302;18.082;2022-11-30T14:53:59;6.73;;;5.80;;
17650;SDS011;26663;59.302;18.082;2022-11-30T14:57:14;9.23;;;6.67;;
17650;SDS011;26663;59.302;18.082;2022-11-30T15:00:25;8.97;;;5.83;;
17650;SDS011;26663;59.302;18.082;2022-11-30T15:03:31;10.33;;;7.37;;
17650;SDS011;26663;59.302;18.082;2022-11-30T15:06:43;6.20;;;5.07;;
17650;SDS011;26663;59.302;18.082;2022-11-30T15:09:49;5.53;;;5.00;;
17650;SDS011;26663;59.302;18.082;2022-11-30T15:12:59;6.03;;;5.03;;
17650;SDS011;26663;59.302;18.082;2022-11-30T15:16:07;6.13;;;4.93;;
17650;SDS011;26663;59.302;18.082;2022-11-30T15:19:20;5.77;;;5.17;;
17650;SDS011;26663;59.302;18.082;2022-11-30T15:22:28;5.53;;;5.13;;
17650;SDS011;26663;59.302;18.082;2022-11-30T15:25:38;7.37;;;5.37;;
17650;SDS011;26663;59.302;18.082;2022-11-30T15:28:48;6.73;;;5.33;;
17650;SDS011;26663;59.302;18.082;2022-11-30T15:31:59;5.70;;;5.10;;
17650;SDS011;26663;59.302;18.082;2022-11-30T15:35:15;6.57;;;5.17;;
17650;SDS011;26663;59.302;18.082;2022-11-30T15:38:25;10.30;;;5.90;;
17650;SDS011;26663;59.302;18.082;2022-11-30T15:41:30;5.63;;;5.03;;
17650;SDS011;26663;59.302;18.082;2022-11-30T15:44:39;6.00;;;5.40;;
17650;SDS011;26663;59.302;18.082;2022-11-30T15:47:48;8.10;;;5.63;;
17650;SDS011;26663;59.302;18.082;2022-11-30T15:50:53;10.53;;;5.33;;
17650;SDS011;26663;59.302;18.082;2022-11-30T15:53:59;8.87;;;5.90;;
17650;SDS011;26663;59.302;18.082;2022-11-30T15:57:04;9.60;;;5.40;;
17650;SDS011;26663;59.302;18.082;2022-11-30T16:00:18;8.93;;;5.30;;
17650;SDS011;26663;59.302;18.082;2022-11-30T16:03:24;10.20;;;6.33;;
17650;SDS011;26663;59.302;18.082;2022-11-30T16:06:30;7.93;;;5.77;;
17650;SDS011;26663;59.302;18.082;2022-11-30T16:09:39;10.67;;;5.63;;
17650;SDS011;26663;59.302;18.082;2022-11-30T16:12:44;9.73;;;6.33;;
17650;SDS011;26663;59.302;18.082;2022-11-30T16:15:50;11.03;;;6.30;;
17650;SDS011;26663;59.302;18.082;2022-11-30T16:18:55;11.50;;;6.07;;
17650;SDS011;26663;59.302;18.082;2022-11-30T16:21:59;10.43;;;6.07;;
17650;SDS011;26663;59.302;18.082;2022-11-30T16:25:08;9.00;;;6.00;;
17650;SDS011;26663;59.302;18.082;2022-11-30T16:28:17;7.40;;;6.00;;
17650;SDS011;26663;59.302;18.082;2022-11-30T16:31:22;6.60;;;5.70;;
17650;SDS011;26663;59.302;18.082;2022-11-30T16:34:27;9.97;;;6.47;;
17650;SDS011;26663;59.302;18.082;2022-11-30T16:37:32;11.73;;;5.93;;
17650;SDS011;26663;59.302;18.082;2022-11-30T16:40:38;9.10;;;5.97;;
17650;SDS011;26663;59.302;18.082;2022-11-30T16:43:43;13.27;;;6.47;;
17650;SDS011;26663;59.302;18.082;2022-11-30T16:46:48;8.83;;;5.50;;
17650;SDS011;26663;59.302;18.082;2022-11-30T16:49:55;8.97;;;6.60;;
17650;SDS011;26663;59.302;18.082;2022-11-30T16:53:00;11.63;;;6.83;;
17650;SDS011;26663;59.302;18.082;2022-11-30T16:56:08;10.23;;;6.43;;
17650;SDS011;26663;59.302;18.082;2022-11-30T16:59:14;12.10;;;6.93;;
17650;SDS011;26663;59.302;18.082;2022-11-30T17:02:19;11.87;;;7.33;;
17650;SDS011;26663;59.302;18.082;2022-11-30T17:05:26;14.33;;;7.27;;
17650;SDS011;26663;59.302;18.082;2022-11-30T17:08:31;10.40;;;7.27;;
17650;SDS011;26663;59.302;18.082;2022-11-30T17:11:37;9.17;;;7.33;;
17650;SDS011;26663;59.302;18.082;2022-11-30T17:14:43;9.43;;;7.00;;
17650;SDS011;26663;59.302;18.082;2022-11-30T17:17:48;10.40;;;7.23;;
17650;SDS011;26663;59.302;18.082;2022-11-30T17:20:53;9.07;;;7.20;;
17650;SDS011;26663;59.302;18.082;2022-11-30T17:23:58;14.53;;;10.17;;
17650;SDS011;26663;59.302;18.082;2022-11-30T17:27:05;15.50;;;9.70;;
17650;SDS011;26663;59.302;18.082;2022-11-30T17:30:10;15.00;;;9.23;;
17650;SDS011;26663;59.302;18.082;2022-11-30T17:33:16;16.80;;;8.87;;
17650;SDS011;26663;59.302;18.082;2022-11-30T17:36:21;11.60;;;7.73;;
17650;SDS011;26663;59.302;18.082;2022-11-30T17:39:26;10.07;;;8.03;;
17650;SDS011;26663;59.302;18.082;2022-11-30T17:42:32;13.47;;;8.00;;
17650;SDS011;26663;59.302;18.082;2022-11-30T17:45:37;9.00;;;7.43;;
17650;SDS011;26663;59.302;18.082;2022-11-30T17:48:43;12.00;;;7.70;;
17650;SDS011;26663;59.302;18.082;2022-11-30T17:51:48;11.20;;;7.13;;
17650;SDS011;26663;59.302;18.082;2022-11-30T17:54:53;11.90;;;7.90;;
17650;SDS011;26663;59.302;18.082;2022-11-30T17:57:59;7.57;;;6.87;;
17650;SDS011;26663;59.302;18.082;2022-11-30T18:01:03;11.20;;;7.87;;
17650;SDS011;26663;59.302;18.082;2022-11-30T18:04:09;11.57;;;7.67;;
17650;SDS011;26663;59.302;18.082;2022-11-30T18:07:15;11.37;;;7.90;;
17650;SDS011;26663;59.302;18.082;2022-11-30T18:10:19;10.73;;;8.40;;
17650;SDS011;26663;59.302;18.082;2022-11-30T18:13:27;15.70;;;9.47;;
17650;SDS011;26663;59.302;18.082;2022-11-30T18:16:33;14.63;;;9.33;;
17650;SDS011;26663;59.302;18.082;2022-11-30T18:19:39;14.73;;;9.37;;
17650;SDS011;26663;59.302;18.082;2022-11-30T18:22:44;11.07;;;8.90;;
17650;SDS011;26663;59.302;18.082;2022-11-30T18:25:49;10.00;;;8.93;;
17650;SDS011;26663;59.302;18.082;2022-11-30T18:28:55;9.67;;;8.60;;
17650;SDS011;26663;59.302;18.082;2022-11-30T18:32:01;15.93;;;9.40;;
17650;SDS011;26663;59.302;18.082;2022-11-30T18:35:08;15.43;;;9.37;;
17650;SDS011;26663;59.302;18.082;2022-11-30T18:38:13;15.40;;;9.10;;
17650;SDS011;26663;59.302;18.082;2022-11-30T18:41:18;13.77;;;9.33;;
17650;SDS011;26663;59.302;18.082;2022-11-30T18:44:25;12.53;;;9.07;;
17650;SDS011;26663;59.302;18.082;2022-11-30T18:47:29;14.17;;;8.70;;